Time;durP1;ratioP1;P1;durP2;ratioP2;P2;SDS_P1;SDS_P2;PMS_P1;PMS_P2;Temp;Humidity;BMP_temperature;BMP_pressure;BME280_temperature;BME280_humidity;BME280_pressure;Samples;Min_cycle;Max_cycle;Signal;HPM_P1;HPM_P2
2022/04/13 00:00:11;;;;;;;4.40;1.80;;;13.00;59.00;;;;;;5061845;28;20642;-68
2022/04/13 00:02:39;;;;;;;4.47;1.45;;;12.90;59.30;;;;;;5064979;28;20086;-70
2022/04/13 00:05:09;;;;;;;3.50;1.60;;;12.90;59.40;;;;;;5059058;28;20686;-70
2022/04/13 00:07:36;;;;;;;3.90;1.40;;;12.90;59.20;;;;;;5059594;28;20055;-69
2022/04/13 00:10:05;;;;;;;2.92;1.33;;;12.90;59.30;;;;;;5059036;28;20777;-68
2022/04/13 00:12:32;;;;;;;4.13;1.20;;;12.80;59.20;;;;;;5058067;28;20055;-69
2022/04/13 00:14:59;;;;;;;4.57;1.45;;;12.80;59.20;;;;;;5058625;28;20032;-70
2022/04/13 00:17:26;;;;;;;3.80;1.25;;;12.70;59.30;;;;;;5057310;28;20053;-71
2022/04/13 00:19:53;;;;;;;2.40;1.23;;;12.70;59.30;;;;;;5063886;28;20051;-70
2022/04/13 00:22:21;;;;;;;2.50;1.35;;;12.70;59.80;;;;;;5058619;28;20533;-71
2022/04/13 00:24:48;;;;;;;3.45;1.20;;;12.60;59.80;;;;;;5061808;28;20080;-69
2022/04/13 00:27:15;;;;;;;4.18;1.20;;;12.60;59.80;;;;;;5059100;28;20053;-69
2022/04/13 00:29:42;;;;;;;2.60;1.20;;;12.60;60.20;;;;;;5041518;28;20044;-69
2022/04/13 00:32:09;;;;;;;1.67;0.70;;;12.50;60.30;;;;;;5058698;28;20044;-70
2022/04/13 00:34:36;;;;;;;2.65;1.10;;;12.50;60.70;;;;;;5058086;28;20049;-69
2022/04/13 00:37:04;;;;;;;5.13;1.27;;;12.50;60.60;;;;;;5058219;28;20050;-68
2022/04/13 00:39:32;;;;;;;2.50;1.13;;;12.40;61.00;;;;;;5054522;28;20068;-70
2022/04/13 00:42:00;;;;;;;3.20;1.25;;;12.40;61.10;;;;;;5062766;28;20055;-71
2022/04/13 00:44:28;;;;;;;2.63;1.42;;;12.40;61.40;;;;;;5061081;28;20425;-68
2022/04/13 00:46:55;;;;;;;5.10;1.58;;;12.30;61.50;;;;;;5061448;28;20052;-69
2022/04/13 00:49:24;;;;;;;3.95;1.63;;;12.30;61.80;;;;;;5063444;28;20539;-71
2022/04/13 00:51:53;;;;;;;3.42;1.27;;;12.20;61.90;;;;;;5062300;28;20063;-70
2022/04/13 00:54:21;;;;;;;2.67;1.20;;;12.20;61.90;;;;;;5058195;28;20048;-69
2022/04/13 00:56:51;;;;;;;2.92;1.17;;;12.20;61.90;;;;;;5069224;28;20139;-70
2022/04/13 00:59:19;;;;;;;2.58;1.40;;;12.20;62.20;;;;;;5066187;28;20463;-70
2022/04/13 01:01:49;;;;;;;3.05;1.20;;;12.20;62.30;;;;;;5057002;28;20734;-68
2022/04/13 01:04:17;;;;;;;2.92;1.23;;;12.20;62.40;;;;;;5059128;28;20147;-71
2022/04/13 01:06:45;;;;;;;3.72;1.50;;;12.10;62.40;;;;;;5065526;28;20071;-69
2022/04/13 01:09:13;;;;;;;3.75;1.50;;;12.10;62.40;;;;;;5069167;28;20033;-69
2022/04/13 01:11:40;;;;;;;4.25;1.30;;;12.10;62.60;;;;;;5067860;28;20052;-70
2022/04/13 01:14:10;;;;;;;1.80;0.88;;;12.00;62.50;;;;;;5069168;28;20098;-69
2022/04/13 01:16:39;;;;;;;3.13;1.27;;;12.00;62.70;;;;;;5066274;28;20071;-69
2022/04/13 01:19:07;;;;;;;5.72;1.30;;;12.00;62.60;;;;;;5063226;28;20036;-70
2022/04/13 01:21:41;;;;;;;5.03;1.08;;;12.00;62.80;;;;;;5060189;28;20036;-70
2022/04/13 01:24:10;;;;;;;2.00;1.00;;;11.90;63.10;;;;;;5064401;28;20057;-68
2022/04/13 01:26:37;;;;;;;2.17;1.02;;;11.90;63.20;;;;;;5062220;28;20135;-69
2022/04/13 01:29:05;;;;;;;3.42;0.93;;;11.90;63.40;;;;;;5063565;28;20071;-69
2022/04/13 01:31:33;;;;;;;2.88;1.10;;;11.90;63.40;;;;;;5064212;28;20051;-68
2022/04/13 01:34:01;;;;;;;4.15;1.52;;;11.90;63.40;;;;;;5049794;28;20053;-69
2022/04/13 01:36:29;;;;;;;3.65;1.13;;;11.90;63.30;;;;;;5067897;28;20059;-68
2022/04/13 01:38:56;;;;;;;3.50;1.27;;;11.90;63.30;;;;;;5052543;28;20388;-70
2022/04/13 01:41:24;;;;;;;3.10;1.00;;;11.90;63.20;;;;;;5067866;28;20059;-69
2022/04/13 01:43:51;;;;;;;2.30;1.05;;;11.90;63.20;;;;;;5068035;28;20036;-69
2022/04/13 01:46:18;;;;;;;2.08;1.00;;;11.90;63.30;;;;;;5066051;28;20157;-69
2022/04/13 01:48:45;;;;;;;4.38;1.25;;;11.90;63.10;;;;;;5069170;28;20068;-69
2022/04/13 01:51:12;;;;;;;3.65;1.70;;;11.90;63.10;;;;;;5039985;28;20410;-69
2022/04/13 01:53:39;;;;;;;2.22;1.02;;;11.90;63.20;;;;;;5060372;28;20037;-70
2022/04/13 01:56:06;;;;;;;4.35;1.10;;;11.90;63.50;;;;;;5063722;28;21053;-69
2022/04/13 01:58:34;;;;;;;4.63;1.50;;;11.90;63.50;;;;;;5062061;28;20032;-69
2022/04/13 02:01:01;;;;;;;2.28;1.02;;;11.90;63.40;;;;;;5063013;28;20448;-68
2022/04/13 02:03:30;;;;;;;3.85;1.50;;;11.90;63.50;;;;;;5062953;28;20098;-69
2022/04/13 02:05:57;;;;;;;5.10;1.65;;;11.90;63.50;;;;;;5064813;28;20466;-69
2022/04/13 02:08:24;;;;;;;3.83;1.40;;;11.90;63.50;;;;;;5063729;28;20049;-69
2022/04/13 02:10:51;;;;;;;4.43;1.58;;;11.90;63.50;;;;;;5069402;28;20049;-69
2022/04/13 02:13:18;;;;;;;5.20;1.40;;;11.80;63.60;;;;;;5062890;28;20079;-69
2022/04/13 02:15:48;;;;;;;4.40;1.42;;;11.80;63.70;;;;;;5056390;28;20133;-69
2022/04/13 02:18:15;;;;;;;2.45;1.38;;;11.80;63.60;;;;;;5067653;28;20203;-70
2022/04/13 02:20:42;;;;;;;3.88;1.52;;;11.80;63.60;;;;;;5060751;28;20060;-69
2022/04/13 02:23:09;;;;;;;2.95;1.40;;;11.80;63.90;;;;;;5059110;28;20051;-68
2022/04/13 02:25:36;;;;;;;4.35;1.25;;;11.70;64.10;;;;;;5059682;28;20040;-69
2022/04/13 02:28:04;;;;;;;2.58;1.20;;;11.70;64.10;;;;;;5060638;28;20039;-69
2022/04/13 02:30:31;;;;;;;5.38;1.48;;;11.70;64.10;;;;;;5059191;28;20037;-68
2022/04/13 02:33:01;;;;;;;4.72;1.25;;;11.70;64.10;;;;;;5058786;28;20032;-68
2022/04/13 02:35:28;;;;;;;2.05;1.00;;;11.70;64.00;;;;;;5057736;28;20579;-69
2022/04/13 02:37:55;;;;;;;3.97;1.63;;;11.70;64.00;;;;;;5060599;28;20132;-70
2022/04/13 02:40:22;;;;;;;3.63;1.08;;;11.70;64.30;;;;;;5060300;28;20049;-69
2022/04/13 02:42:50;;;;;;;2.67;1.10;;;11.70;64.20;;;;;;5063973;28;20045;-70
2022/04/13 02:45:17;;;;;;;3.47;1.23;;;11.70;64.70;;;;;;5063889;28;20102;-69
2022/04/13 02:47:44;;;;;;;3.10;1.33;;;11.70;64.60;;;;;;5065282;28;20036;-67
2022/04/13 02:50:13;;;;;;;2.10;1.08;;;11.70;64.80;;;;;;5062685;28;20094;-68
2022/04/13 02:52:40;;;;;;;4.45;1.25;;;11.70;64.90;;;;;;5065079;28;20166;-68
2022/04/13 02:55:10;;;;;;;3.83;1.25;;;11.70;65.00;;;;;;5061980;28;20047;-68
2022/04/13 02:57:37;;;;;;;3.00;1.15;;;11.70;64.90;;;;;;5061815;28;20063;-69
2022/04/13 03:00:05;;;;;;;2.72;1.10;;;11.70;64.90;;;;;;5058081;28;20102;-70
2022/04/13 03:02:32;;;;;;;2.50;1.02;;;11.70;65.10;;;;;;5059583;28;20121;-69
2022/04/13 03:04:59;;;;;;;4.00;1.30;;;11.70;65.20;;;;;;5059853;28;20037;-69
2022/04/13 03:07:30;;;;;;;3.92;1.88;;;11.70;65.50;;;;;;5057938;28;20040;-70
2022/04/13 03:09:57;;;;;;;4.03;0.93;;;11.70;65.40;;;;;;5061946;28;20044;-68
2022/04/13 03:12:24;;;;;;;2.88;1.23;;;11.70;65.40;;;;;;5059424;28;20506;-68
2022/04/13 03:14:51;;;;;;;3.58;1.30;;;11.70;65.40;;;;;;5058734;28;20037;-70
2022/04/13 03:17:19;;;;;;;7.00;0.98;;;11.70;65.50;;;;;;5059290;28;20040;-69
2022/04/13 03:19:46;;;;;;;4.78;1.40;;;11.60;65.50;;;;;;5065277;28;20052;-68
2022/04/13 03:22:13;;;;;;;3.92;1.23;;;11.60;65.40;;;;;;5061462;28;20097;-68
2022/04/13 03:24:41;;;;;;;3.25;1.40;;;11.60;65.50;;;;;;5058519;28;20080;-70
2022/04/13 03:27:08;;;;;;;7.85;1.60;;;11.60;65.30;;;;;;5061018;28;20037;-69
2022/04/13 03:29:35;;;;;;;2.78;1.13;;;11.60;65.20;;;;;;5059345;28;20056;-70
2022/04/13 03:32:03;;;;;;;5.43;1.88;;;11.60;65.10;;;;;;5066924;28;20119;-68
2022/04/13 03:34:30;;;;;;;2.50;1.20;;;11.50;65.00;;;;;;5068312;28;20044;-71
2022/04/13 03:36:57;;;;;;;3.22;1.13;;;11.50;65.00;;;;;;5068066;28;20048;-69
2022/04/13 03:39:24;;;;;;;4.38;1.42;;;11.50;65.10;;;;;;5051636;28;20198;-69
2022/04/13 03:41:53;;;;;;;4.32;1.45;;;11.50;65.20;;;;;;5069320;28;20071;-70
2022/04/13 03:44:20;;;;;;;3.40;1.25;;;11.50;65.20;;;;;;5070158;28;20057;-69
2022/04/13 03:46:48;;;;;;;9.00;1.30;;;11.50;65.10;;;;;;5069633;28;20055;-70
2022/04/13 03:49:15;;;;;;;5.28;1.35;;;11.50;65.10;;;;;;5069440;28;20486;-69
2022/04/13 03:51:42;;;;;;;4.10;1.00;;;11.50;65.20;;;;;;5067832;28;20052;-70
2022/04/13 03:54:09;;;;;;;2.90;1.33;;;11.50;65.20;;;;;;5066261;28;20043;-68
2022/04/13 03:56:36;;;;;;;3.08;1.00;;;11.40;65.20;;;;;;5067713;28;20055;-69
2022/04/13 03:59:07;;;;;;;4.30;1.23;;;11.40;65.20;;;;;;5049806;28;20496;-68
2022/04/13 04:01:34;;;;;;;3.55;1.10;;;11.30;65.30;;;;;;5047228;28;20133;-70
2022/04/13 04:04:01;;;;;;;2.60;1.05;;;11.40;65.30;;;;;;5065289;28;20072;-70
2022/04/13 04:06:29;;;;;;;2.53;1.02;;;11.40;65.30;;;;;;5060912;28;20049;-70
2022/04/13 04:08:56;;;;;;;1.60;1.05;;;11.30;65.40;;;;;;5066787;28;20036;-69
2022/04/13 04:11:23;;;;;;;3.75;0.93;;;11.30;65.60;;;;;;5065588;28;20043;-70
2022/04/13 04:13:50;;;;;;;2.40;0.95;;;11.30;65.80;;;;;;5066198;28;20093;-70
2022/04/13 04:16:18;;;;;;;1.33;0.90;;;11.20;66.00;;;;;;5064980;28;20048;-70
2022/04/13 04:18:48;;;;;;;2.67;1.00;;;11.20;66.20;;;;;;5060512;28;20485;-71
2022/04/13 04:21:15;;;;;;;4.80;1.00;;;11.20;66.40;;;;;;5049046;28;20424;-70
2022/04/13 04:23:42;;;;;;;2.78;1.10;;;11.10;66.40;;;;;;5065644;28;20604;-70
2022/04/13 04:26:09;;;;;;;4.38;1.27;;;11.10;66.40;;;;;;5066587;28;20052;-69
2022/04/13 04:28:36;;;;;;;4.15;1.20;;;11.10;66.60;;;;;;5067644;28;20041;-70
2022/04/13 04:31:03;;;;;;;4.57;1.05;;;11.10;66.70;;;;;;5048870;28;20382;-70
2022/04/13 04:33:32;;;;;;;2.45;1.00;;;11.10;66.70;;;;;;5066934;28;20124;-69
2022/04/13 04:35:59;;;;;;;5.93;1.52;;;11.10;66.50;;;;;;5071082;28;20057;-70
2022/04/13 04:38:30;;;;;;;1.73;0.90;;;11.00;66.30;;;;;;5068422;28;20414;-69
2022/04/13 04:40:57;;;;;;;6.70;1.38;;;11.00;66.10;;;;;;5066078;28;20065;-70
2022/04/13 04:43:25;;;;;;;2.85;0.98;;;11.00;66.20;;;;;;5067183;28;20042;-70
2022/04/13 04:45:52;;;;;;;3.55;1.50;;;11.00;66.30;;;;;;5066094;28;20047;-70
2022/04/13 04:48:18;;;;;;;5.43;1.73;;;11.00;66.50;;;;;;5067206;28;20028;-70
2022/04/13 04:50:47;;;;;;;3.50;1.20;;;10.90;66.60;;;;;;5068688;28;20123;-70
2022/04/13 04:53:14;;;;;;;4.63;1.60;;;10.90;66.80;;;;;;5068863;28;20435;-69
2022/04/13 04:55:42;;;;;;;2.25;1.02;;;10.90;66.90;;;;;;5066580;28;20084;-69
2022/04/13 04:58:10;;;;;;;2.63;0.98;;;10.90;67.20;;;;;;5068435;28;20051;-70
2022/04/13 05:00:38;;;;;;;4.30;1.35;;;10.80;67.20;;;;;;5046646;28;20052;-70
2022/04/13 05:03:05;;;;;;;4.47;1.30;;;10.90;67.20;;;;;;5067082;28;20131;-71
2022/04/13 05:05:32;;;;;;;2.60;1.10;;;10.90;67.40;;;;;;5066283;28;20050;-69
2022/04/13 05:08:01;;;;;;;5.57;1.80;;;10.90;67.10;;;;;;5059186;28;20123;-70
2022/04/13 05:10:28;;;;;;;4.13;1.50;;;10.90;67.10;;;;;;5066431;28;20055;-70
2022/04/13 05:12:57;;;;;;;6.22;1.52;;;10.80;66.80;;;;;;5067154;28;20051;-69
2022/04/13 05:15:24;;;;;;;4.50;1.63;;;10.90;66.80;;;;;;5067217;28;20048;-69
2022/04/13 05:17:51;;;;;;;3.45;1.40;;;10.90;66.70;;;;;;5068986;28;20041;-69
2022/04/13 05:20:18;;;;;;;3.95;1.45;;;10.90;66.60;;;;;;5050873;28;20040;-69
2022/04/13 05:22:45;;;;;;;3.13;1.23;;;10.90;66.60;;;;;;5069498;28;20048;-70
2022/04/13 05:25:15;;;;;;;3.80;1.02;;;10.90;66.70;;;;;;5066826;28;20044;-69
2022/04/13 05:27:43;;;;;;;5.75;1.35;;;10.90;66.80;;;;;;5072399;28;20106;-70
2022/04/13 05:30:13;;;;;;;2.78;1.20;;;11.00;66.80;;;;;;5067022;28;20082;-68
2022/04/13 05:32:51;;;;;;;3.63;1.20;;;10.90;67.10;;;;;;5065635;28;20053;-70
2022/04/13 05:35:18;;;;;;;3.50;1.20;;;11.00;67.00;;;;;;5063051;28;20050;-70
2022/04/13 05:37:46;;;;;;;3.25;1.30;;;11.10;66.90;;;;;;5062540;28;20048;-69
2022/04/13 05:40:15;;;;;;;3.67;1.33;;;11.10;66.90;;;;;;5061207;28;20071;-69
2022/04/13 05:42:42;;;;;;;8.10;1.95;;;11.10;67.20;;;;;;5059071;28;20041;-69
2022/04/13 05:45:10;;;;;;;3.78;1.38;;;11.10;67.10;;;;;;5061283;28;20204;-69
2022/04/13 05:47:39;;;;;;;3.45;1.52;;;11.20;66.90;;;;;;5054742;28;20074;-69
2022/04/13 05:50:07;;;;;;;6.80;2.03;;;11.20;66.90;;;;;;5060978;28;20067;-69
2022/04/13 05:52:34;;;;;;;4.60;1.52;;;11.30;66.80;;;;;;5060970;28;20075;-69
2022/04/13 05:55:01;;;;;;;4.28;1.58;;;11.40;66.60;;;;;;5061473;28;20131;-69
2022/04/13 05:57:30;;;;;;;3.60;1.30;;;11.40;66.50;;;;;;5059710;28;20090;-68
2022/04/13 05:59:58;;;;;;;6.18;1.70;;;11.40;66.40;;;;;;5060404;28;20420;-70
2022/04/13 06:02:25;;;;;;;4.97;1.27;;;11.50;66.50;;;;;;5059589;28;20548;-70
2022/04/13 06:04:52;;;;;;;5.78;1.55;;;11.50;66.60;;;;;;5058497;28;20094;-69
2022/04/13 06:07:19;;;;;;;3.17;1.23;;;11.60;66.60;;;;;;5059373;28;20204;-70
2022/04/13 06:09:46;;;;;;;3.03;1.33;;;11.60;66.60;;;;;;5059019;28;20120;-69
2022/04/13 06:12:13;;;;;;;3.97;1.60;;;11.70;66.50;;;;;;5056175;28;20131;-70
2022/04/13 06:14:41;;;;;;;3.13;1.25;;;11.70;66.30;;;;;;5062993;28;20052;-70
2022/04/13 06:17:08;;;;;;;5.93;1.52;;;11.80;66.20;;;;;;5060332;28;20050;-69
2022/04/13 06:19:35;;;;;;;4.00;1.63;;;11.80;66.00;;;;;;5044898;28;20129;-70
2022/04/13 06:22:02;;;;;;;5.03;1.50;;;11.90;65.60;;;;;;5058189;28;20177;-68
2022/04/13 06:24:29;;;;;;;5.10;1.48;;;12.00;65.50;;;;;;5061899;28;20048;-69
2022/04/13 06:26:56;;;;;;;4.10;1.85;;;11.90;65.60;;;;;;5061331;28;20047;-70
2022/04/13 06:29:23;;;;;;;4.57;2.08;;;12.00;65.40;;;;;;5061107;28;20064;-70
2022/04/13 06:31:51;;;;;;;4.18;1.55;;;12.10;65.40;;;;;;5060009;28;20067;-70
2022/04/13 06:34:18;;;;;;;3.45;1.45;;;12.20;65.20;;;;;;5060595;28;20068;-70
2022/04/13 06:36:45;;;;;;;3.58;1.27;;;12.20;65.10;;;;;;5064498;28;20167;-68
2022/04/13 06:39:12;;;;;;;4.57;1.60;;;12.20;65.20;;;;;;5059866;28;20044;-69
2022/04/13 06:41:39;;;;;;;2.30;1.30;;;12.20;65.00;;;;;;5060402;28;20059;-69
2022/04/13 06:44:06;;;;;;;4.97;1.83;;;12.30;65.20;;;;;;5060211;28;20048;-70
2022/04/13 06:46:36;;;;;;;3.45;1.73;;;12.30;65.10;;;;;;5060019;28;20060;-71
2022/04/13 06:49:05;;;;;;;3.23;1.33;;;12.40;65.00;;;;;;5061793;28;20117;-70
2022/04/13 06:51:33;;;;;;;3.78;1.50;;;12.40;64.90;;;;;;5056838;28;20668;-69
2022/04/13 06:54:00;;;;;;;5.38;1.60;;;12.50;64.50;;;;;;5060585;28;20044;-70
2022/04/13 06:56:27;;;;;;;2.92;1.33;;;12.60;64.40;;;;;;5062470;28;20051;-69
2022/04/13 06:58:54;;;;;;;5.53;1.65;;;12.60;63.50;;;;;;5059203;28;20040;-69
2022/04/13 07:01:21;;;;;;;2.90;1.10;;;12.70;63.50;;;;;;5057823;28;20536;-70
2022/04/13 07:03:48;;;;;;;2.65;1.30;;;12.80;62.80;;;;;;5062512;28;20467;-70
2022/04/13 07:06:16;;;;;;;5.28;1.10;;;12.90;61.60;;;;;;5061732;28;20532;-70
2022/04/13 07:08:43;;;;;;;7.25;1.80;;;13.00;61.20;;;;;;5060349;28;20047;-69
2022/04/13 07:11:10;;;;;;;2.47;1.02;;;13.10;61.20;;;;;;5059252;28;20467;-70
2022/04/13 07:13:37;;;;;;;4.00;1.20;;;13.10;61.00;;;;;;5057169;28;20050;-70
2022/04/13 07:16:04;;;;;;;3.38;1.50;;;13.20;60.80;;;;;;5059950;28;20036;-69
2022/04/13 07:18:32;;;;;;;3.97;1.52;;;13.30;61.50;;;;;;5060229;28;20052;-70
2022/04/13 07:20:59;;;;;;;4.82;1.85;;;13.40;60.60;;;;;;5055796;28;20040;-70
2022/04/13 07:23:30;;;;;;;3.65;1.45;;;13.40;60.00;;;;;;5058991;28;20568;-70
2022/04/13 07:25:56;;;;;;;3.05;0.98;;;13.50;57.70;;;;;;5059946;28;20052;-70
2022/04/13 07:28:23;;;;;;;5.30;1.63;;;13.60;58.20;;;;;;5059841;28;20417;-69
2022/04/13 07:30:50;;;;;;;2.80;1.10;;;13.60;57.30;;;;;;5042832;28;20044;-70
2022/04/13 07:33:18;;;;;;;4.50;1.40;;;13.70;56.80;;;;;;5066001;28;20052;-68
2022/04/13 07:35:44;;;;;;;2.70;1.08;;;13.70;56.80;;;;;;5068807;28;20490;-68
2022/04/13 07:38:11;;;;;;;4.85;1.40;;;13.70;56.50;;;;;;5066351;28;20052;-68
2022/04/13 07:40:40;;;;;;;4.30;1.75;;;13.70;56.70;;;;;;5041499;28;20071;-68
2022/04/13 07:43:08;;;;;;;4.75;1.30;;;13.70;56.50;;;;;;5066750;28;20123;-69
2022/04/13 07:45:35;;;;;;;3.42;1.40;;;13.80;56.60;;;;;;5064988;28;20139;-69
2022/04/13 07:48:02;;;;;;;3.47;1.83;;;13.90;56.20;;;;;;5054314;28;20056;-70
2022/04/13 07:50:29;;;;;;;4.65;1.60;;;13.90;56.40;;;;;;5061406;28;20044;-69
2022/04/13 07:52:56;;;;;;;5.80;1.73;;;14.00;56.00;;;;;;5058856;28;20044;-69
2022/04/13 07:55:23;;;;;;;4.45;1.30;;;14.10;55.80;;;;;;5061471;28;20044;-69
2022/04/13 07:57:51;;;;;;;3.70;1.88;;;14.10;55.80;;;;;;5060201;28;20044;-69
2022/04/13 08:00:18;;;;;;;4.65;1.38;;;14.20;56.00;;;;;;5059631;28;20381;-70
2022/04/13 08:02:45;;;;;;;3.85;1.63;;;14.30;55.70;;;;;;5060798;28;20127;-71
2022/04/13 08:05:14;;;;;;;4.03;1.60;;;14.40;55.80;;;;;;5057316;28;20154;-75
2022/04/13 08:07:41;;;;;;;6.22;1.80;;;14.50;55.50;;;;;;5059315;28;20132;-72
2022/04/13 08:10:09;;;;;;;3.05;1.10;;;14.60;55.50;;;;;;5062684;28;20123;-73
2022/04/13 08:12:39;;;;;;;4.45;1.67;;;14.60;55.00;;;;;;5067214;28;20052;-72
2022/04/13 08:15:09;;;;;;;3.63;1.60;;;14.70;54.90;;;;;;5065934;28;20098;-73
2022/04/13 08:17:38;;;;;;;4.03;1.75;;;14.70;54.80;;;;;;5062774;28;20033;-73
2022/04/13 08:20:07;;;;;;;3.42;1.55;;;14.80;54.20;;;;;;5048228;28;20045;-73
2022/04/13 08:22:34;;;;;;;5.35;1.50;;;14.90;54.30;;;;;;5065572;28;20048;-72
2022/04/13 08:25:01;;;;;;;4.80;1.45;;;15.00;54.30;;;;;;5058608;28;20316;-74
2022/04/13 08:27:28;;;;;;;3.47;1.77;;;15.10;53.90;;;;;;5064828;28;20033;-73
2022/04/13 08:29:55;;;;;;;3.90;1.50;;;15.20;53.40;;;;;;5058302;28;20371;-73
2022/04/13 08:32:24;;;;;;;3.60;1.80;;;15.30;53.60;;;;;;5060887;28;20040;-72
2022/04/13 08:34:53;;;;;;;3.38;1.13;;;15.30;53.60;;;;;;5061263;28;20059;-75
2022/04/13 08:37:20;;;;;;;6.53;1.50;;;15.40;52.70;;;;;;5062169;28;20055;-71
2022/04/13 08:39:47;;;;;;;3.63;1.20;;;15.50;52.40;;;;;;5060488;28;20052;-72
2022/04/13 08:42:16;;;;;;;3.35;1.30;;;15.60;52.90;;;;;;5059497;28;20059;-73
2022/04/13 08:44:51;;;;;;;2.20;1.43;;;15.60;52.50;;;;;;5060417;28;20115;-73
2022/04/13 08:47:19;;;;;;;3.88;1.40;;;15.70;53.30;;;;;;5061666;28;20079;-73
2022/04/13 08:49:52;;;;;;;3.35;1.15;;;15.70;52.70;;;;;;5064945;28;20052;-72
2022/04/13 08:52:22;;;;;;;3.60;1.42;;;15.80;52.60;;;;;;5064909;28;20059;-72
2022/04/13 08:55:04;;;;;;;5.38;1.30;;;15.90;52.00;;;;;;5065573;28;20040;-73
2022/04/13 08:57:36;;;;;;;3.05;1.23;;;16.00;51.90;;;;;;5054531;28;20036;-72
2022/04/13 09:00:11;;;;;;;2.72;1.17;;;16.10;51.70;;;;;;5059296;28;20125;-73
2022/04/13 09:02:53;;;;;;;1.65;0.93;;;16.10;51.30;;;;;;5063988;28;20043;-72
2022/04/13 09:05:25;;;;;;;4.28;1.27;;;16.10;51.90;;;;;;5061006;28;20053;-72
2022/04/13 09:08:05;;;;;;;4.00;1.55;;;16.20;51.70;;;;;;5063740;28;20119;-71
2022/04/13 09:10:32;;;;;;;5.63;1.55;;;16.30;51.60;;;;;;5061817;28;20547;-72
2022/04/13 09:13:00;;;;;;;4.80;1.20;;;16.40;50.50;;;;;;5065557;28;20962;-75
2022/04/13 09:15:27;;;;;;;3.00;1.38;;;16.50;50.80;;;;;;5064998;28;20060;-75
2022/04/13 09:17:55;;;;;;;2.47;1.40;;;16.60;50.80;;;;;;5064661;28;20544;-74
2022/04/13 09:20:24;;;;;;;4.65;1.58;;;16.60;51.30;;;;;;5070123;28;20036;-73
2022/04/13 09:22:54;;;;;;;2.92;1.00;;;16.70;51.10;;;;;;5063558;28;20032;-75
2022/04/13 09:25:22;;;;;;;4.28;1.40;;;16.70;51.10;;;;;;5063083;28;20049;-74
2022/04/13 09:27:50;;;;;;;2.50;1.10;;;16.80;51.00;;;;;;5062251;28;20044;-70
2022/04/13 09:30:17;;;;;;;2.15;1.05;;;16.90;50.70;;;;;;5063369;28;20417;-71
2022/04/13 09:32:45;;;;;;;2.13;1.00;;;17.00;51.10;;;;;;5060192;28;20061;-73
2022/04/13 09:35:12;;;;;;;3.10;1.20;;;17.10;51.50;;;;;;5064307;28;20099;-74
2022/04/13 09:37:41;;;;;;;3.10;1.30;;;17.10;51.30;;;;;;5064533;28;20113;-72
2022/04/13 09:40:10;;;;;;;2.35;1.00;;;17.20;50.70;;;;;;5065253;28;20068;-73
2022/04/13 09:42:37;;;;;;;2.65;1.27;;;17.20;50.70;;;;;;5061793;28;20060;-73
2022/04/13 09:45:05;;;;;;;3.78;1.35;;;17.30;50.90;;;;;;5064572;28;20052;-72
2022/04/13 09:47:33;;;;;;;2.00;1.05;;;17.30;50.60;;;;;;5063583;28;20123;-74
2022/04/13 09:50:01;;;;;;;2.97;1.35;;;17.40;50.50;;;;;;5067284;28;20048;-74
2022/04/13 09:52:33;;;;;;;2.75;1.17;;;17.40;49.80;;;;;;5066743;28;20049;-73
2022/04/13 09:55:05;;;;;;;3.13;1.35;;;17.50;50.20;;;;;;5069865;28;20072;-73
2022/04/13 09:57:32;;;;;;;2.78;1.35;;;17.60;49.90;;;;;;5068352;28;20041;-72
2022/04/13 10:00:00;;;;;;;2.17;1.20;;;17.60;50.30;;;;;;5068058;28;20044;-72
2022/04/13 10:02:38;;;;;;;2.65;1.20;;;17.70;49.50;;;;;;5061066;28;20124;-75
2022/04/13 10:05:06;;;;;;;2.95;1.33;;;17.70;49.10;;;;;;5063140;28;20042;-74
2022/04/13 10:07:33;;;;;;;3.67;1.42;;;17.70;49.50;;;;;;5062157;28;21644;-71
2022/04/13 10:10:02;;;;;;;4.10;1.40;;;17.80;49.50;;;;;;5061535;28;20045;-73
2022/04/13 10:12:29;;;;;;;2.10;1.00;;;17.90;49.40;;;;;;5064252;28;20051;-73
2022/04/13 10:15:08;;;;;;;3.20;1.05;;;17.90;49.50;;;;;;5065262;28;20124;-73
2022/04/13 10:17:35;;;;;;;3.17;1.40;;;17.90;49.20;;;;;;5065175;28;20036;-73
2022/04/13 10:20:02;;;;;;;3.97;1.35;;;17.90;49.30;;;;;;5057886;28;20074;-73
2022/04/13 10:22:30;;;;;;;5.50;1.70;;;18.00;49.00;;;;;;5060786;28;20033;-74
2022/04/13 10:25:16;;;;;;;3.17;1.23;;;18.00;48.90;;;;;;5066379;28;20040;-74
2022/04/13 10:27:53;;;;;;;4.53;1.27;;;18.10;49.00;;;;;;5060446;28;20120;-74
2022/04/13 10:30:26;;;;;;;2.85;1.15;;;18.20;48.70;;;;;;5060800;28;20047;-74
2022/04/13 10:32:59;;;;;;;3.17;1.20;;;18.20;48.60;;;;;;5061827;28;20037;-75
2022/04/13 10:35:27;;;;;;;3.20;1.13;;;18.20;49.00;;;;;;5060427;28;20259;-74
2022/04/13 10:37:55;;;;;;;3.10;1.13;;;18.30;48.80;;;;;;5058961;28;20048;-73
2022/04/13 10:40:24;;;;;;;2.20;1.38;;;18.30;48.60;;;;;;5058791;28;20451;-74
2022/04/13 10:42:54;;;;;;;1.90;0.97;;;18.40;48.10;;;;;;5061577;28;20040;-73
2022/04/13 10:45:21;;;;;;;3.28;1.30;;;18.40;48.70;;;;;;5058705;28;20045;-73
2022/04/13 10:47:56;;;;;;;4.07;1.40;;;18.50;48.00;;;;;;5068664;28;20068;-72
2022/04/13 10:50:32;;;;;;;3.00;1.50;;;18.50;48.70;;;;;;5067530;28;20321;-74
2022/04/13 10:53:00;;;;;;;2.55;1.25;;;18.60;48.30;;;;;;5067161;28;20052;-75
2022/04/13 10:55:30;;;;;;;3.97;2.25;;;18.60;47.80;;;;;;5066710;28;20498;-73
2022/04/13 10:58:03;;;;;;;4.50;1.73;;;18.60;48.10;;;;;;5068457;28;20068;-74
2022/04/13 11:00:32;;;;;;;3.03;1.45;;;18.60;48.00;;;;;;5058339;28;20090;-75
2022/04/13 11:03:03;;;;;;;3.35;1.65;;;18.70;48.10;;;;;;5061339;28;20070;-75
2022/04/13 11:05:31;;;;;;;3.92;1.63;;;18.70;48.50;;;;;;5060731;28;20108;-74
2022/04/13 11:08:11;;;;;;;4.95;2.20;;;18.70;48.20;;;;;;5057506;28;20155;-74
2022/04/13 11:10:39;;;;;;;;;;;18.80;48.20;;;;;;5061775;28;20130;-74
2022/04/13 11:13:08;;;;;;;4.55;1.65;;;18.80;48.80;;;;;;5061114;28;19928;-73
2022/04/13 11:15:40;;;;;;;4.45;1.90;;;18.90;48.20;;;;;;5059946;28;20124;-75
2022/04/13 11:18:11;;;;;;;6.18;2.15;;;18.90;48.70;;;;;;5062890;28;20090;-75
2022/04/13 11:20:39;;;;;;;3.95;1.92;;;19.00;48.50;;;;;;5059866;28;20052;-76
2022/04/13 11:23:12;;;;;;;5.63;2.38;;;19.00;48.30;;;;;;5059331;28;20037;-74
2022/04/13 11:25:58;;;;;;;6.32;2.22;;;19.00;47.90;;;;;;5060538;28;20107;-75
2022/04/13 11:28:28;;;;;;;4.60;1.73;;;19.10;48.40;;;;;;5058223;28;20040;-75
2022/04/13 11:31:06;;;;;;;4.43;1.65;;;19.10;48.20;;;;;;5063713;28;20032;-75
2022/04/13 11:33:55;;;;;;;3.60;1.67;;;19.20;48.00;;;;;;5067175;28;20070;-75
2022/04/13 11:36:25;;;;;;;7.32;2.28;;;19.20;47.80;;;;;;5065753;28;20061;-76
2022/04/13 11:38:52;;;;;;;;;;;19.20;48.00;;;;;;5062792;28;20072;-76
2022/04/13 11:41:20;;;;;;;4.25;1.70;;;19.20;47.80;;;;;;5058309;28;19950;-76
2022/04/13 11:43:49;;;;;;;5.55;2.13;;;19.20;47.40;;;;;;5063703;28;20086;-76
2022/04/13 11:46:34;;;;;;;5.65;1.90;;;19.30;47.60;;;;;;5062709;28;20048;-74
2022/04/13 11:49:01;;;;;;;6.72;1.70;;;19.20;47.30;;;;;;5063460;28;20055;-76
2022/04/13 11:51:30;;;;;;;5.28;2.28;;;19.30;47.60;;;;;;5060171;28;20071;-75
2022/04/13 11:54:09;;;;;;;5.47;2.50;;;19.30;47.70;;;;;;5059792;28;20053;-76
2022/04/13 11:56:37;;;;;;;5.57;2.00;;;19.30;48.20;;;;;;5037843;28;20055;-76
2022/04/13 11:59:07;;;;;;;6.70;2.53;;;19.30;47.70;;;;;;5057115;28;20047;-76
2022/04/13 12:01:35;;;;;;;5.90;2.80;;;19.30;47.50;;;;;;5055661;28;20044;-76
2022/04/13 12:04:06;;;;;;;3.85;2.00;;;19.30;47.80;;;;;;5060654;28;20033;-76
2022/04/13 12:06:33;;;;;;;4.40;2.17;;;19.40;47.50;;;;;;5061575;28;20056;-76
2022/04/13 12:09:02;;;;;;;7.85;2.30;;;19.40;47.50;;;;;;5061221;28;20041;-76
2022/04/13 12:11:40;;;;;;;5.75;2.65;;;19.40;47.20;;;;;;5057026;28;21253;-75
2022/04/13 12:14:09;;;;;;;5.57;2.38;;;19.40;47.60;;;;;;5060741;28;20569;-75
2022/04/13 12:16:39;;;;;;;4.47;2.10;;;19.40;47.50;;;;;;5060486;28;21352;-76
2022/04/13 12:19:07;;;;;;;5.47;2.50;;;19.40;47.20;;;;;;5058851;28;20108;-77
2022/04/13 12:21:36;;;;;;;4.75;1.90;;;19.40;47.90;;;;;;5061047;28;20044;-74
2022/04/13 12:24:04;;;;;;;4.18;2.17;;;19.40;47.50;;;;;;5043338;28;20590;-73
2022/04/13 12:26:33;;;;;;;5.10;1.92;;;19.40;47.20;;;;;;5060837;28;20052;-73
2022/04/13 12:29:00;;;;;;;6.38;2.03;;;19.40;47.10;;;;;;5061033;28;20056;-74
2022/04/13 12:31:29;;;;;;;5.57;1.90;;;19.40;47.00;;;;;;5058951;28;20044;-74
2022/04/13 12:34:01;;;;;;;6.75;2.72;;;19.50;47.20;;;;;;5038719;28;20037;-73
2022/04/13 12:36:29;;;;;;;5.88;2.17;;;19.40;47.30;;;;;;5063511;28;20051;-72
2022/04/13 12:38:57;;;;;;;5.82;2.28;;;19.50;47.60;;;;;;5066222;28;20068;-72
2022/04/13 12:41:27;;;;;;;5.20;1.98;;;19.50;47.60;;;;;;5062319;28;20121;-72
2022/04/13 12:43:56;;;;;;;5.07;1.60;;;19.60;47.30;;;;;;5062753;28;20048;-75
2022/04/13 12:46:25;;;;;;;7.25;1.90;;;19.60;47.40;;;;;;5062733;28;20112;-73
2022/04/13 12:48:55;;;;;;;3.85;1.65;;;19.70;47.30;;;;;;5061767;28;20067;-72
2022/04/13 12:51:22;;;;;;;;;;;19.70;46.80;;;;;;5061562;28;20398;-73
2022/04/13 12:53:53;;;;;;;4.40;1.52;;;19.70;47.20;;;;;;5065341;28;19924;-74